createdAt,value
2019-04-05T00:02:15.869Z,96379.19
2019-04-05T00:04:46.160Z,96381.06
2019-04-05T00:07:15.802Z,96371.36
2019-04-05T00:09:47.562Z,96380.30
2019-04-05T00:12:17.302Z,96375.83
2019-04-05T00:14:46.961Z,96376.05
2019-04-05T00:17:16.745Z,96376.05
2019-04-05T00:19:46.469Z,96371.44
2019-04-05T00:22:16.198Z,96366.89
2019-04-05T00:24:46.068Z,96366.89
2019-04-05T00:27:16.538Z,96362.23
2019-04-05T00:29:46.353Z,96362.23
2019-04-05T00:32:16.098Z,96372.63
2019-04-05T00:34:46.380Z,96381.94
2019-04-05T00:37:16.171Z,96381.94
2019-04-05T00:39:46.215Z,96377.57
2019-04-05T00:42:15.971Z,96379.52
2019-04-05T00:44:45.706Z,96360.25
2019-04-05T00:47:15.473Z,96359.34
2019-04-05T00:49:45.573Z,96356.80
2019-04-05T00:52:15.193Z,96354.88
2019-04-05T00:54:44.961Z,96354.88
2019-04-05T00:57:14.767Z,96340.55
2019-04-05T00:59:44.405Z,96340.55
2019-04-05T01:02:14.138Z,96353.66
2019-04-05T01:04:43.590Z,96350.64
2019-04-05T01:07:13.549Z,96352.48
2019-04-05T01:09:43.390Z,96352.48
2019-04-05T01:12:13.174Z,96360.20
2019-04-05T01:14:43.049Z,96360.20
2019-04-05T01:17:24.434Z,96370.28
2019-04-05T01:19:45.644Z,96375.24
2019-04-05T01:22:15.457Z,96365.28
2019-04-05T01:24:45.444Z,96372.42
2019-04-05T01:27:15.751Z,96384.67
2019-04-05T01:29:45.585Z,96382.34
2019-04-05T01:32:15.373Z,96388.55
2019-04-05T01:34:45.056Z,96388.55
2019-04-05T01:37:14.908Z,96402.18
2019-04-05T01:39:44.598Z,96403.45
2019-04-05T01:42:14.266Z,96407.13
2019-04-05T01:44:44.015Z,96400.94
2019-04-05T01:47:13.745Z,96399.33
2019-04-05T01:49:43.853Z,96402.45
2019-04-05T01:52:13.959Z,96407.42
2019-04-05T01:54:43.779Z,96407.42
2019-04-05T01:57:13.499Z,96415.73
2019-04-05T01:59:43.474Z,96415.25
2019-04-05T02:02:13.173Z,96415.25
2019-04-05T02:04:43.193Z,96417.86
2019-04-05T02:07:12.974Z,96406.81
2019-04-05T02:09:42.755Z,96397.84
2019-04-05T02:12:12.434Z,96401.74
2019-04-05T02:14:42.721Z,96401.74
2019-04-05T02:17:12.467Z,96392.40
2019-04-05T02:19:42.022Z,96390.03
2019-04-05T02:22:11.712Z,96388.36
2019-04-05T02:24:41.595Z,96381.31
2019-04-05T02:27:11.864Z,96376.45
2019-04-05T02:29:41.530Z,96379.19
2019-04-05T02:32:11.342Z,96368.22
2019-04-05T02:34:40.926Z,96359.56
2019-04-05T02:37:10.643Z,96368.37
2019-04-05T02:39:40.391Z,96368.37
2019-04-05T02:42:10.011Z,96371.15
2019-04-05T02:44:39.625Z,96378.63
2019-04-05T02:47:09.694Z,96371.91
2019-04-05T02:49:39.869Z,96373.72
2019-04-05T02:52:09.444Z,96374.23
2019-04-05T02:54:39.325Z,96379.07
2019-04-05T02:57:08.982Z,96378.66
2019-04-05T02:59:38.569Z,96388.64
2019-04-05T03:02:08.910Z,96388.97
2019-04-05T03:04:38.655Z,96387.72
2019-04-05T03:07:08.397Z,96386.74
2019-04-05T03:09:38.123Z,96388.03
2019-04-05T03:12:07.984Z,96385.30
2019-04-05T03:14:37.614Z,96387.44
2019-04-05T03:17:07.183Z,96387.44
2019-04-05T03:19:39.207Z,96387.14
2019-04-05T03:22:11.109Z,96389.13
2019-04-05T03:24:41.155Z,96391.36
2019-04-05T03:27:24.997Z,96392.50
2019-04-05T03:29:54.623Z,96391.17
2019-04-05T03:32:24.765Z,96387.92
2019-04-05T03:34:54.641Z,96389.88
2019-04-05T03:37:24.179Z,96390.69
2019-04-05T03:39:53.980Z,96396.15
2019-04-05T03:42:24.151Z,96396.15
2019-04-05T03:44:53.947Z,96392.61
2019-04-05T03:47:23.843Z,96387.59
2019-04-05T03:49:53.664Z,96385.66
2019-04-05T03:52:23.473Z,96379.07
2019-04-05T03:54:54.449Z,96382.13
2019-04-05T03:57:24.220Z,96386.63
2019-04-05T03:59:53.844Z,96386.34
2019-04-05T04:02:24.004Z,96386.34
2019-04-05T04:04:53.551Z,96392.23
2019-04-05T04:07:23.326Z,96399.50
2019-04-05T04:09:53.026Z,96399.50
2019-04-05T04:12:22.925Z,96398.89
2019-04-05T04:14:52.547Z,96402.52
2019-04-05T04:17:22.394Z,96402.52
2019-04-05T04:19:52.336Z,96412.11
2019-04-05T04:22:29.198Z,96416.55
2019-04-05T04:24:59.840Z,96416.55
2019-04-05T04:27:30.221Z,96420.25
2019-04-05T04:30:00.690Z,96420.25
2019-04-05T04:32:33.337Z,96427.37
2019-04-05T04:35:02.924Z,96427.37
2019-04-05T04:37:32.430Z,96431.14
2019-04-05T04:40:02.300Z,96431.14
2019-04-05T04:42:32.421Z,96436.80
2019-04-05T04:45:12.178Z,96444.98
2019-04-05T04:47:33.507Z,96444.98
2019-04-05T04:50:03.329Z,96457.41
2019-04-05T04:52:32.868Z,96454.00
2019-04-05T04:55:02.748Z,96453.61
2019-04-05T04:57:33.243Z,96453.61
2019-04-05T05:00:04.183Z,96458.34
2019-04-05T05:02:33.904Z,96458.80
2019-04-05T05:05:03.587Z,96461.36
2019-04-05T05:07:33.406Z,96464.86
2019-04-05T05:10:03.599Z,96471.73
2019-04-05T05:12:33.512Z,96471.73
2019-04-05T05:15:03.295Z,96465.34
2019-04-05T05:17:38.673Z,96465.34
2019-04-05T05:20:05.088Z,96461.94
2019-04-05T05:22:35.283Z,96461.94
2019-04-05T05:25:04.911Z,96465.10
2019-04-05T05:27:34.999Z,96466.16
2019-04-05T05:30:04.778Z,96464.57
2019-04-05T05:32:35.005Z,96468.00
2019-04-05T05:35:05.352Z,96473.55
2019-04-05T05:37:36.334Z,96471.59
2019-04-05T05:40:06.162Z,96471.59
2019-04-05T05:42:35.807Z,96475.00
2019-04-05T05:45:06.640Z,96474.09
2019-04-05T05:47:36.460Z,96468.69
2019-04-05T05:50:06.851Z,96472.47
2019-04-05T05:52:37.226Z,96464.34
2019-04-05T05:55:09.504Z,96465.88
2019-04-05T05:57:39.140Z,96462.17
2019-04-05T06:00:09.585Z,96469.90
2019-04-05T06:02:39.752Z,96457.50
2019-04-05T06:05:09.444Z,96457.50
2019-04-05T06:07:41.024Z,96460.09
2019-04-05T06:10:11.014Z,96468.59
2019-04-05T06:12:40.580Z,96470.43
2019-04-05T06:15:10.213Z,96465.16
2019-04-05T06:17:40.313Z,96463.63
2019-04-05T06:20:10.168Z,96463.63
2019-04-05T06:22:39.875Z,96461.69
2019-04-05T06:25:09.636Z,96462.53
2019-04-05T06:27:39.734Z,96471.80
2019-04-05T06:30:11.198Z,96476.11
2019-04-05T06:32:41.293Z,96484.44
2019-04-05T06:35:11.709Z,96484.44
2019-04-05T06:37:41.773Z,96487.54
2019-04-05T06:40:11.555Z,96480.66
2019-04-05T06:42:42.951Z,96484.83
2019-04-05T06:45:12.577Z,96482.86
2019-04-05T06:47:42.152Z,96481.08
2019-04-05T06:50:11.732Z,96481.11
2019-04-05T06:52:41.986Z,96481.11
2019-04-05T06:55:11.897Z,96475.67
2019-04-05T06:57:41.938Z,96474.22
2019-04-05T07:00:11.971Z,96465.81
2019-04-05T07:02:41.748Z,96466.86
2019-04-05T07:05:11.994Z,96463.20
2019-04-05T07:07:41.841Z,96465.58
2019-04-05T07:10:11.426Z,96465.83
2019-04-05T07:12:41.146Z,96456.22
2019-04-05T07:15:10.914Z,96461.30
2019-04-05T07:17:40.581Z,96461.30
2019-04-05T07:20:12.367Z,96454.33
2019-04-05T07:22:44.739Z,96448.53
2019-04-05T07:25:16.223Z,96451.23
2019-04-05T07:27:45.836Z,96452.72
2019-04-05T07:30:16.445Z,96452.72
2019-04-05T07:32:46.709Z,96453.12
2019-04-05T07:35:16.705Z,96461.86
2019-04-05T07:37:49.427Z,96461.10
2019-04-05T07:40:19.664Z,96461.72
2019-04-05T07:42:49.794Z,96472.41
2019-04-05T07:45:20.506Z,96476.16
2019-04-05T07:47:50.504Z,96479.48
2019-04-05T07:50:20.447Z,96479.48
2019-04-05T07:52:50.043Z,96475.23
2019-04-05T07:55:21.294Z,96481.10
2019-04-05T07:57:51.197Z,96486.31
2019-04-05T08:00:43.461Z,96486.31
2019-04-05T08:03:13.215Z,96490.66
2019-04-05T08:05:42.753Z,96493.91
2019-04-05T08:08:16.225Z,96505.94
2019-04-05T08:10:45.618Z,96505.17
2019-04-05T08:13:15.483Z,96506.20
2019-04-05T08:15:45.806Z,96506.20
2019-04-05T08:18:15.453Z,96498.47
2019-04-05T08:20:45.131Z,96502.62
2019-04-05T08:23:14.863Z,96510.02
2019-04-05T08:25:44.562Z,96509.63
2019-04-05T08:28:14.198Z,96509.63
2019-04-05T08:30:43.759Z,96503.33
2019-04-05T08:33:13.695Z,96512.13
2019-04-05T08:35:43.632Z,96512.13
2019-04-05T08:38:13.702Z,96517.45
2019-04-05T08:40:45.132Z,96526.38
2019-04-05T08:43:14.847Z,96523.34
2019-04-05T08:45:45.018Z,96523.34
2019-04-05T08:48:14.571Z,96517.91
2019-04-05T08:50:44.658Z,96518.27
2019-04-05T08:53:19.017Z,96523.49
2019-04-05T08:55:48.682Z,96523.49
2019-04-05T08:58:18.519Z,96524.08
2019-04-05T09:00:48.293Z,96524.08
2019-04-05T09:03:17.972Z,96519.99
2019-04-05T09:05:47.771Z,96524.95
2019-04-05T09:08:17.413Z,96518.50
2019-04-05T09:10:47.426Z,96519.33
2019-04-05T09:13:17.000Z,96518.36
2019-04-05T09:15:49.098Z,96519.91
2019-04-05T09:18:22.958Z,96519.91
2019-04-05T09:20:52.761Z,96520.34
2019-04-05T09:23:23.200Z,96521.62
2019-04-05T09:25:52.986Z,96519.20
2019-04-05T09:28:22.901Z,96521.08
2019-04-05T09:30:53.263Z,96519.52
2019-04-05T09:33:23.340Z,96519.52
2019-04-05T09:35:53.594Z,96518.51
2019-04-05T09:38:23.515Z,96509.23
2019-04-05T09:40:53.301Z,96509.23
2019-04-05T09:43:23.527Z,96513.67
2019-04-05T09:45:53.644Z,96509.61
2019-04-05T09:48:23.259Z,96512.77
2019-04-05T09:50:52.914Z,96506.16
2019-04-05T09:53:22.933Z,96495.18
2019-04-05T09:55:53.765Z,96499.61
2019-04-05T09:58:23.684Z,96503.48
2019-04-05T10:00:53.465Z,96501.80
2019-04-05T10:03:24.298Z,96501.80
2019-04-05T10:05:54.311Z,96493.51
2019-04-05T10:08:30.068Z,96493.51
2019-04-05T10:11:03.833Z,96498.65
2019-04-05T10:13:35.438Z,96502.22
2019-04-05T10:16:05.389Z,96501.67
2019-04-05T10:18:35.626Z,96501.10
2019-04-05T10:21:05.683Z,96503.06
2019-04-05T10:23:35.457Z,96506.84
2019-04-05T10:26:06.086Z,96503.55
2019-04-05T10:28:36.075Z,96503.55
2019-04-05T10:31:06.153Z,96508.54
2019-04-05T10:33:36.113Z,96510.87
2019-04-05T10:36:06.152Z,96509.92
2019-04-05T10:38:35.783Z,96502.86
2019-04-05T10:41:05.734Z,96504.33
2019-04-05T10:43:35.752Z,96505.63
2019-04-05T10:46:05.730Z,96502.73
2019-04-05T10:48:35.672Z,96502.73
2019-04-05T10:51:07.997Z,96507.38
2019-04-05T10:53:38.106Z,96506.38
2019-04-05T10:56:11.005Z,96506.38
2019-04-05T10:58:41.126Z,96510.21
2019-04-05T11:01:11.026Z,96510.21
2019-04-05T11:03:40.635Z,96513.31
2019-04-05T11:06:10.703Z,96512.97
2019-04-05T11:08:40.515Z,96512.73
2019-04-05T11:11:10.223Z,96513.45
2019-04-05T11:13:41.098Z,96515.36
2019-04-05T11:16:11.376Z,96515.36
2019-04-05T11:18:41.606Z,96514.37
2019-04-05T11:21:11.562Z,96505.81
2019-04-05T11:23:41.402Z,96511.78
2019-04-05T11:26:15.762Z,96511.19
2019-04-05T11:28:45.573Z,96511.19
2019-04-05T11:31:17.558Z,96512.83
2019-04-05T11:33:49.148Z,96511.85
2019-04-05T11:36:20.352Z,96510.44
2019-04-05T11:38:53.602Z,96505.86
2019-04-05T11:41:23.571Z,96507.63
2019-04-05T11:46:24.033Z,96503.55
2019-04-05T11:48:55.855Z,96501.01
2019-04-05T11:51:26.111Z,96509.52
2019-04-05T11:53:59.141Z,96511.32
2019-04-05T11:56:31.053Z,96507.77
2019-04-05T11:59:03.297Z,96509.29
2019-04-05T12:01:44.575Z,96507.50
2019-04-05T12:04:14.168Z,96507.50
2019-04-05T12:06:45.416Z,96501.02
2019-04-05T12:09:15.380Z,96495.14
2019-04-05T12:11:46.811Z,96503.06
2019-04-05T12:14:29.670Z,96503.06
2019-04-05T12:16:51.329Z,96499.28
2019-04-05T12:19:21.225Z,96489.09
2019-04-05T12:21:54.835Z,96486.92
2019-04-05T12:24:25.064Z,96483.02
2019-04-05T12:26:54.851Z,96483.02
2019-04-05T12:29:24.382Z,96484.62
2019-04-05T12:31:55.535Z,96485.86
2019-04-05T12:34:28.496Z,96476.20
2019-04-05T12:37:00.212Z,96476.20
2019-04-05T12:39:30.294Z,96474.72
2019-04-05T12:42:00.055Z,96470.94
2019-04-05T12:44:30.027Z,96475.69
2019-04-05T12:46:59.888Z,96475.69
2019-04-05T12:49:29.563Z,96458.48
2019-04-05T12:51:59.344Z,96461.61
2019-04-05T12:54:29.465Z,96461.61
2019-04-05T12:56:59.468Z,96459.56
2019-04-05T12:59:29.725Z,96464.36
2019-04-05T13:01:59.789Z,96456.50
2019-04-05T13:04:29.981Z,96461.88
2019-04-05T13:06:59.800Z,96458.31
2019-04-05T13:09:30.285Z,96455.02
2019-04-05T13:12:00.133Z,96455.02
2019-04-05T13:14:30.945Z,96454.80
2019-04-05T13:17:02.688Z,96458.45
2019-04-05T13:19:33.908Z,96463.02
2019-04-05T13:22:04.433Z,96461.39
2019-04-05T13:24:34.075Z,96461.39
2019-04-05T13:27:05.162Z,96453.45
2019-04-05T13:29:35.091Z,96449.46
2019-04-05T13:32:04.762Z,96449.46
2019-04-05T13:34:34.758Z,96451.20
2019-04-05T13:37:04.882Z,96451.20
2019-04-05T13:39:34.609Z,96444.05
2019-04-05T13:42:07.334Z,96444.05
2019-04-05T13:44:39.831Z,96446.41
2019-04-05T13:47:09.649Z,96437.91
2019-04-05T13:49:40.635Z,96434.73
2019-04-05T13:52:12.089Z,96424.71
2019-04-05T13:54:42.288Z,96427.00
2019-04-05T13:57:14.990Z,96427.00
2019-04-05T13:59:45.158Z,96429.79
2019-04-05T14:02:15.760Z,96429.79
2019-04-05T14:04:53.304Z,96430.41
2019-04-05T14:07:21.603Z,96431.77
2019-04-05T14:09:52.828Z,96431.77
2019-04-05T14:12:23.512Z,96424.44
2019-04-05T14:14:57.234Z,96422.70
2019-04-05T14:17:27.258Z,96408.97
2019-04-05T14:19:57.184Z,96411.81
2019-04-05T14:22:27.224Z,96411.81
2019-04-05T14:24:59.150Z,96411.46
2019-04-05T14:27:34.834Z,96409.92
2019-04-05T14:30:08.613Z,96409.92
2019-04-05T14:32:43.710Z,96407.31
2019-04-05T14:35:14.033Z,96411.63
2019-04-05T14:37:43.931Z,96411.63
2019-04-05T14:40:14.180Z,96407.59
2019-04-05T14:42:45.607Z,96407.59
2019-04-05T14:45:16.107Z,96410.27
2019-04-05T14:47:45.931Z,96400.83
2019-04-05T14:50:20.074Z,96400.83
2019-04-05T14:52:51.499Z,96393.09
2019-04-05T14:55:21.320Z,96389.97
2019-04-05T14:57:53.066Z,96388.98
2019-04-05T15:00:27.360Z,96385.75
2019-04-05T15:02:57.713Z,96379.81
2019-04-05T15:05:27.376Z,96384.80
2019-04-05T15:08:02.705Z,96384.80
2019-04-05T15:10:32.461Z,96378.20
2019-04-05T15:13:03.497Z,96377.72
2019-04-05T15:15:33.750Z,96375.52
2019-04-05T15:18:04.954Z,96373.74
2019-04-05T15:20:35.528Z,96375.86
2019-04-05T15:23:05.690Z,96366.33
2019-04-05T15:25:36.287Z,96365.22
2019-04-05T15:28:07.735Z,96370.95
2019-04-05T15:30:38.287Z,96370.95
2019-04-05T15:33:10.287Z,96375.20
2019-04-05T15:35:51.725Z,96388.59
2019-04-05T15:38:32.477Z,96384.97
2019-04-05T15:41:03.901Z,96382.36
2019-04-05T15:43:36.513Z,96387.98
2019-04-05T15:46:06.953Z,96391.81
2019-04-05T15:48:36.718Z,96395.02
2019-04-05T15:51:07.026Z,96392.92
2019-04-05T15:53:40.330Z,96392.92
2019-04-05T15:56:10.135Z,96390.61
2019-04-05T15:58:40.522Z,96390.61
2019-04-05T16:01:11.229Z,96387.54
2019-04-05T16:03:41.635Z,96387.54
2019-04-05T16:06:12.976Z,96383.27
2019-04-05T16:08:43.194Z,96385.64
2019-04-05T16:11:13.388Z,96391.61
2019-04-05T16:13:43.916Z,96391.61
2019-04-05T16:16:13.579Z,96388.32
2019-04-05T16:18:43.887Z,96388.32
2019-04-05T16:21:13.496Z,96392.62
2019-04-05T16:23:43.363Z,96396.91
2019-04-05T16:26:13.485Z,96394.33
2019-04-05T16:28:43.347Z,96394.33
2019-04-05T16:31:20.342Z,96386.91
2019-04-05T16:33:52.676Z,96383.35
2019-04-05T16:36:24.224Z,96392.43
2019-04-05T16:38:54.153Z,96395.95
2019-04-05T16:41:25.711Z,96404.95
2019-04-05T16:43:55.613Z,96404.94
2019-04-05T16:46:25.704Z,96405.30
2019-04-05T16:48:57.043Z,96401.94
2019-04-05T16:51:28.496Z,96404.96
2019-04-05T16:54:02.400Z,96404.96
2019-04-05T16:56:32.556Z,96406.30
2019-04-05T16:59:03.188Z,96406.20
2019-04-05T17:01:32.680Z,96404.48
2019-04-05T17:04:02.322Z,96404.48
2019-04-05T17:06:32.250Z,96411.10
2019-04-05T17:09:03.211Z,96409.64
2019-04-05T17:11:36.783Z,96406.81
2019-04-05T17:14:16.304Z,96406.81
2019-04-05T17:16:46.413Z,96411.02
2019-04-05T17:19:16.665Z,96411.23
2019-04-05T17:21:46.420Z,96411.23
2019-04-05T17:27:01.092Z,96412.79
2019-04-05T17:29:31.562Z,96415.45
2019-04-05T17:32:09.797Z,96409.28
2019-04-05T17:34:42.897Z,96409.16
2019-04-05T17:37:18.428Z,96412.92
2019-04-05T17:39:51.300Z,96411.30
2019-04-05T17:42:21.181Z,96419.06
2019-04-05T17:44:51.072Z,96419.06
2019-04-05T17:47:23.829Z,96408.55
2019-04-05T17:49:53.950Z,96408.55
2019-04-05T17:52:25.589Z,96414.44
2019-04-05T17:55:00.510Z,96414.44
2019-04-05T17:57:31.083Z,96408.20
2019-04-05T18:00:01.252Z,96415.00
2019-04-05T18:02:31.073Z,96415.00
2019-04-05T18:05:01.616Z,96410.86
2019-04-05T18:07:34.588Z,96419.33
2019-04-05T18:10:04.750Z,96425.50
2019-04-05T18:12:35.011Z,96428.88
2019-04-05T18:15:04.918Z,96429.81
2019-04-05T18:17:35.143Z,96430.76
2019-04-05T18:20:06.122Z,96430.59
2019-04-05T18:22:36.068Z,96430.59
2019-04-05T18:25:07.081Z,96428.61
2019-04-05T18:27:37.252Z,96429.81
2019-04-05T18:30:07.939Z,96429.81
2019-04-05T18:32:39.149Z,96436.67
2019-04-05T18:35:08.760Z,96437.67
2019-04-05T18:37:41.561Z,96438.67
2019-04-05T18:40:12.232Z,96440.23
2019-04-05T18:42:41.991Z,96440.23
2019-04-05T18:45:11.816Z,96438.96
2019-04-05T18:47:42.261Z,96446.73
2019-04-05T18:50:18.595Z,96450.23
2019-04-05T18:52:49.258Z,96451.43
2019-04-05T18:55:18.990Z,96451.43
2019-04-05T18:57:48.785Z,96454.74
2019-04-05T19:00:18.766Z,96454.74
2019-04-05T19:02:49.689Z,96453.60
2019-04-05T19:05:19.203Z,96453.60
2019-04-05T19:07:51.753Z,96451.55
2019-04-05T19:10:21.599Z,96450.81
2019-04-05T19:12:51.754Z,96451.30
2019-04-05T19:15:24.206Z,96449.16
2019-04-05T19:17:58.609Z,96450.20
2019-04-05T19:20:28.369Z,96450.20
2019-04-05T19:22:58.336Z,96453.25
2019-04-05T19:25:29.859Z,96453.25
2019-04-05T19:27:59.622Z,96448.09
2019-04-05T19:48:35.688Z,96444.65
2019-04-05T19:50:54.162Z,96451.69
2019-04-05T19:53:25.015Z,96451.69
2019-04-05T19:55:56.076Z,96440.79
2019-04-05T19:58:27.019Z,96445.07
2019-04-05T20:00:59.244Z,96449.55
2019-04-05T20:03:30.591Z,96443.22
2019-04-05T20:06:02.401Z,96438.67
2019-04-05T20:08:32.546Z,96433.58
2019-04-05T20:11:02.662Z,96429.58
2019-04-05T20:13:34.370Z,96426.83
2019-04-05T20:16:04.313Z,96436.34
2019-04-05T20:18:34.077Z,96436.34
2019-04-05T20:21:04.451Z,96435.76
2019-04-05T20:23:34.974Z,96436.34
2019-04-05T20:26:10.223Z,96436.34
2019-04-05T20:28:40.915Z,96427.36
2019-04-05T20:31:11.174Z,96437.19
2019-04-05T20:33:42.362Z,96433.55
2019-04-05T20:36:12.244Z,96433.55
2019-04-05T20:38:42.185Z,96432.30
2019-04-05T20:41:12.411Z,96438.22
2019-04-05T20:43:42.494Z,96438.22
2019-04-05T20:46:12.386Z,96426.85
2019-04-05T20:48:45.203Z,96432.44
2019-04-05T20:51:15.168Z,96433.64
2019-04-05T20:53:45.069Z,96434.13
2019-04-05T20:56:14.929Z,96434.13
2019-04-05T20:58:44.897Z,96432.56
2019-04-05T21:01:14.529Z,96432.56
2019-04-05T21:03:46.222Z,96435.63
2019-04-05T21:06:17.246Z,96432.20
2019-04-05T21:08:47.108Z,96426.61
2019-04-05T21:11:16.993Z,96426.61
2019-04-05T21:13:46.571Z,96428.67
2019-04-05T21:16:22.042Z,96428.67
2019-04-05T21:18:53.329Z,96410.26
2019-04-05T21:21:24.999Z,96410.26
2019-04-05T21:23:55.142Z,96401.56
2019-04-05T21:26:25.068Z,96404.25
2019-04-05T21:28:54.678Z,96404.25
2019-04-05T21:31:24.421Z,96400.11
2019-04-05T21:33:54.243Z,96400.11
2019-04-05T21:36:25.084Z,96407.05
2019-04-05T21:38:54.884Z,96409.98
2019-04-05T21:41:24.648Z,96413.47
2019-04-05T21:43:54.316Z,96417.56
2019-04-05T21:46:25.071Z,96412.73
2019-04-05T21:48:55.085Z,96412.73
2019-04-05T21:51:24.788Z,96418.27
2019-04-05T21:53:54.472Z,96417.97
2019-04-05T21:56:24.218Z,96417.97
2019-04-05T21:58:55.359Z,96415.17
2019-04-05T22:01:26.302Z,96415.64
2019-04-05T22:03:56.484Z,96415.36
2019-04-05T22:06:26.649Z,96410.29
2019-04-05T22:08:56.645Z,96414.31
2019-04-05T22:11:28.049Z,96408.94
2019-04-05T22:13:57.839Z,96406.34
2019-04-05T22:16:27.468Z,96408.95
2019-04-05T22:18:57.290Z,96407.14
2019-04-05T22:21:27.003Z,96407.14
2019-04-05T22:23:58.346Z,96412.30
2019-04-05T22:26:28.157Z,96415.75
2019-04-05T22:28:57.793Z,96415.05
2019-04-05T22:31:27.594Z,96417.00
2019-04-05T22:33:58.164Z,96415.67
2019-04-05T22:36:28.245Z,96415.67
2019-04-05T22:38:58.078Z,96410.78
2019-04-05T22:41:28.918Z,96414.15
2019-04-05T22:43:58.850Z,96417.09
2019-04-05T22:46:28.990Z,96404.80
2019-04-05T22:48:59.015Z,96404.80
2019-04-05T22:51:29.435Z,96407.33
2019-04-05T22:53:59.928Z,96403.31
2019-04-05T22:56:30.629Z,96413.92
2019-04-05T22:59:01.579Z,96413.92
2019-04-05T23:01:34.267Z,96409.64
2019-04-05T23:04:06.149Z,96415.62
2019-04-05T23:06:35.792Z,96420.95
2019-04-05T23:09:07.150Z,96414.00
2019-04-05T23:11:37.733Z,96410.98
2019-04-05T23:14:07.662Z,96414.97
2019-04-05T23:16:37.647Z,96414.97
2019-04-05T23:19:07.499Z,96410.98
2019-04-05T23:21:37.265Z,96410.98
2019-04-05T23:24:07.210Z,96413.10
2019-04-05T23:26:36.811Z,96413.10
2019-04-05T23:29:06.350Z,96421.36
2019-04-05T23:31:36.903Z,96421.36
2019-04-05T23:34:06.568Z,96417.23
2019-04-05T23:36:36.153Z,96415.62
2019-04-05T23:39:06.464Z,96415.62
2019-04-05T23:41:36.356Z,96417.09
2019-04-05T23:44:06.624Z,96417.09
2019-04-05T23:46:36.396Z,96415.77
2019-04-05T23:49:06.201Z,96411.20
2019-04-05T23:51:35.896Z,96407.91
2019-04-05T23:54:05.545Z,96402.44
2019-04-05T23:56:35.234Z,96406.58
2019-04-05T23:59:04.763Z,96406.84
